sensor_id;sensor_type;location;lat;lon;timestamp;P1;durP1;ratioP1;P2;durP2;ratioP2
12721;SDS011;6425;50.316;8.114;2023-07-08T00:00:00;17;;;10.5;;
12721;SDS011;6425;50.316;8.114;2023-07-08T00:03:00;14;;;10.1;;
12721;SDS011;6425;50.316;8.114;2023-07-08T00:06:00;14.6;;;10.7;;
12721;SDS011;6425;50.316;8.114;2023-07-08T00:09:00;14.6;;;10.7;;
12721;SDS011;6425;50.316;8.114;2023-07-08T00:12:00;15.9;;;10.4;;
12721;SDS011;6425;50.316;8.114;2023-07-08T00:15:00;15.9;;;10.4;;
12721;SDS011;6425;50.316;8.114;2023-07-08T00:18:00;14.9;;;10.1;;
12721;SDS011;6425;50.316;8.114;2023-07-08T00:21:00;17.2;;;10.8;;
12721;SDS011;6425;50.316;8.114;2023-07-08T00:24:00;17.2;;;10.8;;
12721;SDS011;6425;50.316;8.114;2023-07-08T00:27:00;16.3;;;9.9;;
12721;SDS011;6425;50.316;8.114;2023-07-08T00:30:00;16.3;;;9.9;;
12721;SDS011;6425;50.316;8.114;2023-07-08T00:33:00;13.9;;;10.2;;
12721;SDS011;6425;50.316;8.114;2023-07-08T00:36:00;21.4;;;10.1;;
12721;SDS011;6425;50.316;8.114;2023-07-08T00:39:00;21.4;;;10.1;;
12721;SDS011;6425;50.316;8.114;2023-07-08T00:42:00;16.4;;;10;;
12721;SDS011;6425;50.316;8.114;2023-07-08T00:45:00;16.4;;;10;;
12721;SDS011;6425;50.316;8.114;2023-07-08T00:48:01;16.6;;;10.2;;
12721;SDS011;6425;50.316;8.114;2023-07-08T00:51:00;16;;;9.9;;
12721;SDS011;6425;50.316;8.114;2023-07-08T00:54:00;16;;;9.9;;
12721;SDS011;6425;50.316;8.114;2023-07-08T00:57:00;16;;;9.9;;
12721;SDS011;6425;50.316;8.114;2023-07-08T01:00:00;16.1;;;10.2;;
12721;SDS011;6425;50.316;8.114;2023-07-08T01:03:00;16.1;;;10.2;;
12721;SDS011;6425;50.316;8.114;2023-07-08T01:06:00;14.4;;;9.9;;
12721;SDS011;6425;50.316;8.114;2023-07-08T01:09:00;14.4;;;9.9;;
12721;SDS011;6425;50.316;8.114;2023-07-08T01:12:00;18.3;;;10.6;;
12721;SDS011;6425;50.316;8.114;2023-07-08T01:15:00;13.4;;;9.8;;
12721;SDS011;6425;50.316;8.114;2023-07-08T01:18:00;13.4;;;9.8;;
12721;SDS011;6425;50.316;8.114;2023-07-08T01:21:01;16.6;;;10;;
12721;SDS011;6425;50.316;8.114;2023-07-08T01:24:00;16.6;;;10;;
12721;SDS011;6425;50.316;8.114;2023-07-08T01:27:00;13.4;;;9.5;;
12721;SDS011;6425;50.316;8.114;2023-07-08T01:30:00;14.5;;;10.3;;
12721;SDS011;6425;50.316;8.114;2023-07-08T01:33:04;14.5;;;10.3;;
12721;SDS011;6425;50.316;8.114;2023-07-08T01:36:00;15.4;;;9.9;;
12721;SDS011;6425;50.316;8.114;2023-07-08T01:39:00;15.4;;;9.9;;
12721;SDS011;6425;50.316;8.114;2023-07-08T01:42:00;15.3;;;9.8;;
12721;SDS011;6425;50.316;8.114;2023-07-08T01:45:00;13.9;;;9.6;;
12721;SDS011;6425;50.316;8.114;2023-07-08T01:48:00;13.9;;;9.6;;
12721;SDS011;6425;50.316;8.114;2023-07-08T01:51:01;13.2;;;9.4;;
12721;SDS011;6425;50.316;8.114;2023-07-08T01:54:00;13.2;;;9.4;;
12721;SDS011;6425;50.316;8.114;2023-07-08T01:57:00;13.9;;;10;;
12721;SDS011;6425;50.316;8.114;2023-07-08T02:00:00;14.1;;;10.1;;
12721;SDS011;6425;50.316;8.114;2023-07-08T02:03:00;14.1;;;10.1;;
12721;SDS011;6425;50.316;8.114;2023-07-08T02:06:00;13.2;;;10;;
12721;SDS011;6425;50.316;8.114;2023-07-08T02:09:00;13.2;;;10;;
12721;SDS011;6425;50.316;8.114;2023-07-08T02:12:00;16.9;;;10.7;;
12721;SDS011;6425;50.316;8.114;2023-07-08T02:15:00;13;;;9.3;;
12721;SDS011;6425;50.316;8.114;2023-07-08T02:18:00;13;;;9.3;;
12721;SDS011;6425;50.316;8.114;2023-07-08T02:21:00;15;;;9.6;;
12721;SDS011;6425;50.316;8.114;2023-07-08T02:24:00;15;;;9.6;;
12721;SDS011;6425;50.316;8.114;2023-07-08T02:27:00;14.5;;;10.1;;
12721;SDS011;6425;50.316;8.114;2023-07-08T02:30:00;13.2;;;9.9;;
12721;SDS011;6425;50.316;8.114;2023-07-08T02:33:00;13.2;;;9.9;;
12721;SDS011;6425;50.316;8.114;2023-07-08T02:36:00;18;;;10;;
12721;SDS011;6425;50.316;8.114;2023-07-08T02:39:00;18;;;10;;
12721;SDS011;6425;50.316;8.114;2023-07-08T02:42:00;13.5;;;9.6;;
12721;SDS011;6425;50.316;8.114;2023-07-08T02:45:00;15;;;10.1;;
12721;SDS011;6425;50.316;8.114;2023-07-08T02:48:00;15;;;10.1;;
12721;SDS011;6425;50.316;8.114;2023-07-08T02:51:00;14.9;;;9.8;;
12721;SDS011;6425;50.316;8.114;2023-07-08T02:54:00;14.9;;;9.8;;
12721;SDS011;6425;50.316;8.114;2023-07-08T02:57:00;16.6;;;9.7;;
12721;SDS011;6425;50.316;8.114;2023-07-08T03:00:00;16.5;;;10;;
12721;SDS011;6425;50.316;8.114;2023-07-08T03:03:00;16.5;;;10;;
12721;SDS011;6425;50.316;8.114;2023-07-08T03:06:01;13.6;;;9.8;;
12721;SDS011;6425;50.316;8.114;2023-07-08T03:09:00;13.6;;;9.8;;
12721;SDS011;6425;50.316;8.114;2023-07-08T03:12:00;15.5;;;10.2;;
12721;SDS011;6425;50.316;8.114;2023-07-08T03:15:00;15.5;;;10.2;;
12721;SDS011;6425;50.316;8.114;2023-07-08T03:18:00;15.5;;;10.2;;
12721;SDS011;6425;50.316;8.114;2023-07-08T03:21:00;12.9;;;9.6;;
12721;SDS011;6425;50.316;8.114;2023-07-08T03:24:00;12.9;;;9.6;;
12721;SDS011;6425;50.316;8.114;2023-07-08T03:27:00;13.7;;;10;;
12721;SDS011;6425;50.316;8.114;2023-07-08T03:30:00;13.9;;;9.2;;
12721;SDS011;6425;50.316;8.114;2023-07-08T03:33:00;13.9;;;9.2;;
12721;SDS011;6425;50.316;8.114;2023-07-08T03:36:00;15.9;;;9.7;;
12721;SDS011;6425;50.316;8.114;2023-07-08T03:39:00;15.9;;;9.7;;
12721;SDS011;6425;50.316;8.114;2023-07-08T03:42:00;13.2;;;9.3;;
12721;SDS011;6425;50.316;8.114;2023-07-08T03:45:00;12.6;;;9.1;;
12721;SDS011;6425;50.316;8.114;2023-07-08T03:48:00;12.6;;;9.1;;
12721;SDS011;6425;50.316;8.114;2023-07-08T03:51:00;14.1;;;9.2;;
12721;SDS011;6425;50.316;8.114;2023-07-08T03:54:00;14.1;;;9.2;;
12721;SDS011;6425;50.316;8.114;2023-07-08T03:57:00;13.3;;;9.2;;
12721;SDS011;6425;50.316;8.114;2023-07-08T04:00:00;13;;;9.9;;
12721;SDS011;6425;50.316;8.114;2023-07-08T04:03:00;13;;;9.9;;
12721;SDS011;6425;50.316;8.114;2023-07-08T04:06:00;14.5;;;9.3;;
12721;SDS011;6425;50.316;8.114;2023-07-08T04:09:00;14.5;;;9.3;;
12721;SDS011;6425;50.316;8.114;2023-07-08T04:12:00;14.8;;;9.9;;
12721;SDS011;6425;50.316;8.114;2023-07-08T04:15:00;15.2;;;9.3;;
12721;SDS011;6425;50.316;8.114;2023-07-08T04:18:00;15.2;;;9.3;;
12721;SDS011;6425;50.316;8.114;2023-07-08T04:21:00;14.7;;;9.5;;
12721;SDS011;6425;50.316;8.114;2023-07-08T04:24:00;14.7;;;9.5;;
12721;SDS011;6425;50.316;8.114;2023-07-08T04:27:00;14.1;;;9.3;;
12721;SDS011;6425;50.316;8.114;2023-07-08T04:30:00;13.2;;;9.8;;
12721;SDS011;6425;50.316;8.114;2023-07-08T04:33:00;13.2;;;9.8;;
12721;SDS011;6425;50.316;8.114;2023-07-08T04:36:00;13.9;;;8.7;;
12721;SDS011;6425;50.316;8.114;2023-07-08T04:39:00;13.9;;;8.7;;
12721;SDS011;6425;50.316;8.114;2023-07-08T04:42:00;12.9;;;9.6;;
12721;SDS011;6425;50.316;8.114;2023-07-08T04:45:00;11.4;;;8.8;;
12721;SDS011;6425;50.316;8.114;2023-07-08T04:48:00;11.4;;;8.8;;
12721;SDS011;6425;50.316;8.114;2023-07-08T04:51:00;11.7;;;8.6;;
12721;SDS011;6425;50.316;8.114;2023-07-08T04:54:00;11.7;;;8.6;;
12721;SDS011;6425;50.316;8.114;2023-07-08T04:57:00;14.9;;;9.3;;
12721;SDS011;6425;50.316;8.114;2023-07-08T05:00:00;12.7;;;9.3;;
12721;SDS011;6425;50.316;8.114;2023-07-08T05:03:00;12.7;;;9.3;;
12721;SDS011;6425;50.316;8.114;2023-07-08T05:06:00;14.9;;;8.9;;
12721;SDS011;6425;50.316;8.114;2023-07-08T05:09:00;13.8;;;8.8;;
12721;SDS011;6425;50.316;8.114;2023-07-08T05:12:00;10.8;;;8.7;;
12721;SDS011;6425;50.316;8.114;2023-07-08T05:15:00;13.6;;;9.3;;
12721;SDS011;6425;50.316;8.114;2023-07-08T05:18:00;13.6;;;9.3;;
12721;SDS011;6425;50.316;8.114;2023-07-08T05:21:00;13.6;;;9.3;;
12721;SDS011;6425;50.316;8.114;2023-07-08T05:24:00;16.4;;;9.4;;
12721;SDS011;6425;50.316;8.114;2023-07-08T05:27:00;16.4;;;9.4;;
12721;SDS011;6425;50.316;8.114;2023-07-08T05:30:00;15.5;;;9.4;;
12721;SDS011;6425;50.316;8.114;2023-07-08T05:33:00;15.5;;;9.4;;
12721;SDS011;6425;50.316;8.114;2023-07-08T05:36:00;14.3;;;9;;
12721;SDS011;6425;50.316;8.114;2023-07-08T05:39:00;12.5;;;8.5;;
12721;SDS011;6425;50.316;8.114;2023-07-08T05:42:00;12.5;;;8.5;;
12721;SDS011;6425;50.316;8.114;2023-07-08T05:45:00;12.8;;;8.8;;
12721;SDS011;6425;50.316;8.114;2023-07-08T05:48:00;12.8;;;8.8;;
12721;SDS011;6425;50.316;8.114;2023-07-08T05:51:00;13.8;;;9.1;;
12721;SDS011;6425;50.316;8.114;2023-07-08T05:54:00;12;;;8.3;;
12721;SDS011;6425;50.316;8.114;2023-07-08T05:57:00;12;;;8.3;;
12721;SDS011;6425;50.316;8.114;2023-07-08T06:00:00;12;;;8.3;;
12721;SDS011;6425;50.316;8.114;2023-07-08T06:03:00;12.8;;;8.2;;
12721;SDS011;6425;50.316;8.114;2023-07-08T06:06:00;11.2;;;8.5;;
12721;SDS011;6425;50.316;8.114;2023-07-08T06:09:00;9.9;;;8.3;;
12721;SDS011;6425;50.316;8.114;2023-07-08T06:12:00;9.9;;;8.3;;
12721;SDS011;6425;50.316;8.114;2023-07-08T06:15:00;10.9;;;7.4;;
12721;SDS011;6425;50.316;8.114;2023-07-08T06:18:00;10.9;;;7.4;;
12721;SDS011;6425;50.316;8.114;2023-07-08T06:21:00;10.9;;;7.4;;
12721;SDS011;6425;50.316;8.114;2023-07-08T06:24:00;10.8;;;7.3;;
12721;SDS011;6425;50.316;8.114;2023-07-08T06:27:00;10.8;;;7.3;;
12721;SDS011;6425;50.316;8.114;2023-07-08T06:30:00;12.8;;;7.2;;
12721;SDS011;6425;50.316;8.114;2023-07-08T06:33:00;12.8;;;7.2;;
12721;SDS011;6425;50.316;8.114;2023-07-08T06:36:00;12.8;;;7.2;;
12721;SDS011;6425;50.316;8.114;2023-07-08T06:39:00;13.8;;;8.4;;
12721;SDS011;6425;50.316;8.114;2023-07-08T06:42:00;15.5;;;8.2;;
12721;SDS011;6425;50.316;8.114;2023-07-08T06:45:00;12.7;;;7.7;;
12721;SDS011;6425;50.316;8.114;2023-07-08T06:48:00;12.7;;;7.7;;
12721;SDS011;6425;50.316;8.114;2023-07-08T06:51:00;10.3;;;7.1;;
12721;SDS011;6425;50.316;8.114;2023-07-08T06:54:00;13.2;;;7.1;;
12721;SDS011;6425;50.316;8.114;2023-07-08T06:57:00;13.2;;;7.1;;
12721;SDS011;6425;50.316;8.114;2023-07-08T07:00:00;11.5;;;6.6;;
12721;SDS011;6425;50.316;8.114;2023-07-08T07:03:00;11.5;;;6.6;;
12721;SDS011;6425;50.316;8.114;2023-07-08T07:06:00;9.5;;;6.9;;
12721;SDS011;6425;50.316;8.114;2023-07-08T07:09:00;10.5;;;7.3;;
12721;SDS011;6425;50.316;8.114;2023-07-08T07:12:00;10.5;;;7.3;;
12721;SDS011;6425;50.316;8.114;2023-07-08T07:15:00;8.7;;;6.9;;
12721;SDS011;6425;50.316;8.114;2023-07-08T07:18:00;8.7;;;6.9;;
12721;SDS011;6425;50.316;8.114;2023-07-08T07:21:00;8.5;;;6;;
12721;SDS011;6425;50.316;8.114;2023-07-08T07:24:00;12.3;;;7.2;;
12721;SDS011;6425;50.316;8.114;2023-07-08T07:27:00;12.3;;;7.2;;
12721;SDS011;6425;50.316;8.114;2023-07-08T07:30:00;8;;;6.1;;
12721;SDS011;6425;50.316;8.114;2023-07-08T07:33:00;8;;;6.1;;
12721;SDS011;6425;50.316;8.114;2023-07-08T07:36:00;9.8;;;6.2;;
12721;SDS011;6425;50.316;8.114;2023-07-08T07:39:00;7.8;;;4.8;;
12721;SDS011;6425;50.316;8.114;2023-07-08T07:42:00;7.8;;;4.8;;
12721;SDS011;6425;50.316;8.114;2023-07-08T07:45:00;3.1;;;1.8;;
12721;SDS011;6425;50.316;8.114;2023-07-08T07:48:00;3.1;;;1.8;;
12721;SDS011;6425;50.316;8.114;2023-07-08T07:51:00;9.1;;;5.6;;
12721;SDS011;6425;50.316;8.114;2023-07-08T07:54:00;10.9;;;7.3;;
12721;SDS011;6425;50.316;8.114;2023-07-08T07:57:00;10.9;;;7.3;;
12721;SDS011;6425;50.316;8.114;2023-07-08T08:00:00;8.6;;;7.2;;
12721;SDS011;6425;50.316;8.114;2023-07-08T08:03:00;8.6;;;7.2;;
12721;SDS011;6425;50.316;8.114;2023-07-08T08:06:00;8.9;;;7.3;;
12721;SDS011;6425;50.316;8.114;2023-07-08T08:09:00;12.7;;;8.4;;
12721;SDS011;6425;50.316;8.114;2023-07-08T08:12:00;12.7;;;8.4;;
12721;SDS011;6425;50.316;8.114;2023-07-08T08:15:00;11.8;;;8.1;;
12721;SDS011;6425;50.316;8.114;2023-07-08T08:18:00;11.8;;;8.1;;
12721;SDS011;6425;50.316;8.114;2023-07-08T08:21:00;10.6;;;8.2;;
12721;SDS011;6425;50.316;8.114;2023-07-08T08:24:00;12;;;8.3;;
12721;SDS011;6425;50.316;8.114;2023-07-08T08:27:00;12;;;8.3;;
12721;SDS011;6425;50.316;8.114;2023-07-08T08:30:00;10.9;;;8.1;;
12721;SDS011;6425;50.316;8.114;2023-07-08T08:33:00;10.9;;;8.1;;
12721;SDS011;6425;50.316;8.114;2023-07-08T08:36:00;13.1;;;8.8;;
12721;SDS011;6425;50.316;8.114;2023-07-08T08:39:00;10.9;;;8.4;;
12721;SDS011;6425;50.316;8.114;2023-07-08T08:42:00;10.9;;;8.4;;
12721;SDS011;6425;50.316;8.114;2023-07-08T08:45:00;11.2;;;8.9;;
12721;SDS011;6425;50.316;8.114;2023-07-08T08:48:00;11.2;;;8.9;;
12721;SDS011;6425;50.316;8.114;2023-07-08T08:51:00;12.1;;;7.5;;
12721;SDS011;6425;50.316;8.114;2023-07-08T08:54:00;9.3;;;7.1;;
12721;SDS011;6425;50.316;8.114;2023-07-08T08:57:00;9.3;;;7.1;;
12721;SDS011;6425;50.316;8.114;2023-07-08T09:00:00;10.4;;;7.5;;
12721;SDS011;6425;50.316;8.114;2023-07-08T09:03:01;10.4;;;7.5;;
12721;SDS011;6425;50.316;8.114;2023-07-08T09:06:00;9.3;;;7;;
12721;SDS011;6425;50.316;8.114;2023-07-08T09:09:00;9.7;;;6.7;;
12721;SDS011;6425;50.316;8.114;2023-07-08T09:12:01;9.7;;;6.7;;
12721;SDS011;6425;50.316;8.114;2023-07-08T09:15:00;11.5;;;7.1;;
12721;SDS011;6425;50.316;8.114;2023-07-08T09:18:03;11.5;;;7.1;;
12721;SDS011;6425;50.316;8.114;2023-07-08T09:21:00;7.8;;;6.5;;
12721;SDS011;6425;50.316;8.114;2023-07-08T09:24:02;11.7;;;7;;
12721;SDS011;6425;50.316;8.114;2023-07-08T09:27:00;11.7;;;7;;
12721;SDS011;6425;50.316;8.114;2023-07-08T09:30:00;7.2;;;6.3;;
12721;SDS011;6425;50.316;8.114;2023-07-08T09:33:02;7.2;;;6.3;;
12721;SDS011;6425;50.316;8.114;2023-07-08T09:36:00;9.4;;;6.3;;
12721;SDS011;6425;50.316;8.114;2023-07-08T09:39:00;9;;;6.6;;
12721;SDS011;6425;50.316;8.114;2023-07-08T09:42:03;9;;;6.6;;
12721;SDS011;6425;50.316;8.114;2023-07-08T09:45:00;8.2;;;6.1;;
12721;SDS011;6425;50.316;8.114;2023-07-08T09:48:01;8.2;;;6.1;;
12721;SDS011;6425;50.316;8.114;2023-07-08T09:51:00;10.1;;;6.7;;
12721;SDS011;6425;50.316;8.114;2023-07-08T09:54:00;10;;;6.1;;
12721;SDS011;6425;50.316;8.114;2023-07-08T09:57:00;10;;;6.1;;
12721;SDS011;6425;50.316;8.114;2023-07-08T10:00:00;7.1;;;5.9;;
12721;SDS011;6425;50.316;8.114;2023-07-08T10:03:02;7.1;;;5.9;;
12721;SDS011;6425;50.316;8.114;2023-07-08T10:06:02;11.5;;;6.1;;
12721;SDS011;6425;50.316;8.114;2023-07-08T10:09:00;8.9;;;6.2;;
12721;SDS011;6425;50.316;8.114;2023-07-08T10:12:00;8.9;;;6.2;;
12721;SDS011;6425;50.316;8.114;2023-07-08T10:15:00;9;;;5.8;;
12721;SDS011;6425;50.316;8.114;2023-07-08T10:18:00;9;;;5.8;;
12721;SDS011;6425;50.316;8.114;2023-07-08T10:21:02;6.6;;;5.9;;
12721;SDS011;6425;50.316;8.114;2023-07-08T10:24:02;8.1;;;5.8;;
12721;SDS011;6425;50.316;8.114;2023-07-08T10:27:00;8.1;;;5.8;;
12721;SDS011;6425;50.316;8.114;2023-07-08T10:30:02;7.8;;;6;;
12721;SDS011;6425;50.316;8.114;2023-07-08T10:33:05;7.8;;;6;;
12721;SDS011;6425;50.316;8.114;2023-07-08T10:36:07;8.8;;;5.8;;
12721;SDS011;6425;50.316;8.114;2023-07-08T10:39:13;9.1;;;5.8;;
12721;SDS011;6425;50.316;8.114;2023-07-08T10:42:01;9.1;;;5.8;;
12721;SDS011;6425;50.316;8.114;2023-07-08T10:45:02;8.4;;;5.9;;
12721;SDS011;6425;50.316;8.114;2023-07-08T10:48:06;8.4;;;5.9;;
12721;SDS011;6425;50.316;8.114;2023-07-08T10:51:03;7.6;;;6.1;;
12721;SDS011;6425;50.316;8.114;2023-07-08T10:54:07;8.3;;;6.3;;
12721;SDS011;6425;50.316;8.114;2023-07-08T10:57:01;8.3;;;6.3;;
12721;SDS011;6425;50.316;8.114;2023-07-08T11:00:02;9;;;6.1;;
12721;SDS011;6425;50.316;8.114;2023-07-08T11:03:08;9;;;6.1;;
12721;SDS011;6425;50.316;8.114;2023-07-08T11:06:00;8;;;6.5;;
12721;SDS011;6425;50.316;8.114;2023-07-08T11:09:01;16.1;;;6.7;;
12721;SDS011;6425;50.316;8.114;2023-07-08T11:12:01;16.1;;;6.7;;
12721;SDS011;6425;50.316;8.114;2023-07-08T11:15:02;8;;;6;;
12721;SDS011;6425;50.316;8.114;2023-07-08T11:18:01;8;;;6;;
12721;SDS011;6425;50.316;8.114;2023-07-08T11:21:00;9.4;;;6.2;;
12721;SDS011;6425;50.316;8.114;2023-07-08T11:24:01;8;;;6.4;;
12721;SDS011;6425;50.316;8.114;2023-07-08T11:27:00;8;;;6.4;;
12721;SDS011;6425;50.316;8.114;2023-07-08T11:30:01;8.5;;;6.4;;
12721;SDS011;6425;50.316;8.114;2023-07-08T11:33:00;8.5;;;6.4;;
12721;SDS011;6425;50.316;8.114;2023-07-08T11:36:00;7;;;6.1;;
12721;SDS011;6425;50.316;8.114;2023-07-08T11:39:00;7.6;;;6.4;;
12721;SDS011;6425;50.316;8.114;2023-07-08T11:42:04;7.6;;;6.4;;
12721;SDS011;6425;50.316;8.114;2023-07-08T11:45:00;10.1;;;6.4;;
12721;SDS011;6425;50.316;8.114;2023-07-08T11:48:04;10.1;;;6.4;;
12721;SDS011;6425;50.316;8.114;2023-07-08T11:51:02;9.6;;;6.5;;
12721;SDS011;6425;50.316;8.114;2023-07-08T11:54:01;9.1;;;6.4;;
12721;SDS011;6425;50.316;8.114;2023-07-08T11:57:00;9.1;;;6.4;;
12721;SDS011;6425;50.316;8.114;2023-07-08T12:00:17;8.1;;;6.1;;
12721;SDS011;6425;50.316;8.114;2023-07-08T12:03:04;8.1;;;6.1;;
12721;SDS011;6425;50.316;8.114;2023-07-08T12:06:00;8.9;;;5.9;;
12721;SDS011;6425;50.316;8.114;2023-07-08T12:09:02;6.5;;;5.6;;
12721;SDS011;6425;50.316;8.114;2023-07-08T12:12:01;6.5;;;5.6;;
12721;SDS011;6425;50.316;8.114;2023-07-08T12:15:04;8.5;;;5.8;;
12721;SDS011;6425;50.316;8.114;2023-07-08T12:18:01;8.5;;;5.8;;
12721;SDS011;6425;50.316;8.114;2023-07-08T12:21:00;6.3;;;5;;
12721;SDS011;6425;50.316;8.114;2023-07-08T12:24:02;11.2;;;5.4;;
12721;SDS011;6425;50.316;8.114;2023-07-08T12:27:00;11.2;;;5.4;;
12721;SDS011;6425;50.316;8.114;2023-07-08T12:30:00;8.1;;;5.4;;
12721;SDS011;6425;50.316;8.114;2023-07-08T12:33:00;8.1;;;5.4;;
12721;SDS011;6425;50.316;8.114;2023-07-08T12:36:00;9.2;;;4.7;;
12721;SDS011;6425;50.316;8.114;2023-07-08T12:39:00;8.6;;;5.1;;
12721;SDS011;6425;50.316;8.114;2023-07-08T12:42:00;8.6;;;5.1;;
12721;SDS011;6425;50.316;8.114;2023-07-08T12:45:00;9.3;;;5.2;;
12721;SDS011;6425;50.316;8.114;2023-07-08T12:48:00;9.3;;;5.2;;
12721;SDS011;6425;50.316;8.114;2023-07-08T12:51:00;6.5;;;5.2;;
12721;SDS011;6425;50.316;8.114;2023-07-08T12:54:00;7.9;;;5.4;;
12721;SDS011;6425;50.316;8.114;2023-07-08T12:57:00;7.9;;;5.4;;
12721;SDS011;6425;50.316;8.114;2023-07-08T13:00:00;6.5;;;5;;
12721;SDS011;6425;50.316;8.114;2023-07-08T13:03:02;6.5;;;5;;
12721;SDS011;6425;50.316;8.114;2023-07-08T13:06:00;7.8;;;5.6;;
12721;SDS011;6425;50.316;8.114;2023-07-08T13:09:02;8;;;6.1;;
12721;SDS011;6425;50.316;8.114;2023-07-08T13:12:00;8;;;6.1;;
12721;SDS011;6425;50.316;8.114;2023-07-08T13:15:00;7.4;;;6;;
12721;SDS011;6425;50.316;8.114;2023-07-08T13:18:00;7.4;;;6;;
12721;SDS011;6425;50.316;8.114;2023-07-08T13:21:00;8.5;;;5.5;;
12721;SDS011;6425;50.316;8.114;2023-07-08T13:24:00;10.2;;;5.7;;
12721;SDS011;6425;50.316;8.114;2023-07-08T13:27:00;10.2;;;5.7;;
12721;SDS011;6425;50.316;8.114;2023-07-08T13:30:06;7.8;;;5.7;;
12721;SDS011;6425;50.316;8.114;2023-07-08T13:33:00;7.8;;;5.7;;
12721;SDS011;6425;50.316;8.114;2023-07-08T13:36:01;9.8;;;6.2;;
12721;SDS011;6425;50.316;8.114;2023-07-08T13:39:00;7.4;;;5.5;;
12721;SDS011;6425;50.316;8.114;2023-07-08T13:42:00;7.4;;;5.5;;
12721;SDS011;6425;50.316;8.114;2023-07-08T13:45:00;8.1;;;5.8;;
12721;SDS011;6425;50.316;8.114;2023-07-08T13:48:01;8.1;;;5.8;;
12721;SDS011;6425;50.316;8.114;2023-07-08T13:51:01;7.7;;;5.2;;
12721;SDS011;6425;50.316;8.114;2023-07-08T13:54:00;7.8;;;5.3;;
12721;SDS011;6425;50.316;8.114;2023-07-08T13:57:00;7.8;;;5.3;;
12721;SDS011;6425;50.316;8.114;2023-07-08T14:00:00;7.4;;;5.6;;
12721;SDS011;6425;50.316;8.114;2023-07-08T14:03:00;7.4;;;5.6;;
12721;SDS011;6425;50.316;8.114;2023-07-08T14:06:00;8.3;;;5.9;;
12721;SDS011;6425;50.316;8.114;2023-07-08T14:09:03;10.2;;;5.7;;
12721;SDS011;6425;50.316;8.114;2023-07-08T14:12:00;10.2;;;5.7;;
12721;SDS011;6425;50.316;8.114;2023-07-08T14:15:00;8;;;6;;
12721;SDS011;6425;50.316;8.114;2023-07-08T14:18:00;8;;;6;;
12721;SDS011;6425;50.316;8.114;2023-07-08T14:21:00;8.5;;;6.1;;
12721;SDS011;6425;50.316;8.114;2023-07-08T14:24:00;9.1;;;5.5;;
12721;SDS011;6425;50.316;8.114;2023-07-08T14:27:00;9.1;;;5.5;;
12721;SDS011;6425;50.316;8.114;2023-07-08T14:30:00;9;;;5.4;;
12721;SDS011;6425;50.316;8.114;2023-07-08T14:33:00;9;;;5.4;;
12721;SDS011;6425;50.316;8.114;2023-07-08T14:36:00;9.7;;;5.5;;
12721;SDS011;6425;50.316;8.114;2023-07-08T14:39:00;7.7;;;5.3;;
12721;SDS011;6425;50.316;8.114;2023-07-08T14:42:00;7.7;;;5.3;;
12721;SDS011;6425;50.316;8.114;2023-07-08T14:45:00;7.8;;;4.9;;
12721;SDS011;6425;50.316;8.114;2023-07-08T14:48:00;7.8;;;4.9;;
12721;SDS011;6425;50.316;8.114;2023-07-08T14:51:00;6.8;;;5;;
12721;SDS011;6425;50.316;8.114;2023-07-08T14:54:00;7.4;;;5.3;;
12721;SDS011;6425;50.316;8.114;2023-07-08T14:57:00;7.4;;;5.3;;
12721;SDS011;6425;50.316;8.114;2023-07-08T15:00:00;8.7;;;5.4;;
12721;SDS011;6425;50.316;8.114;2023-07-08T15:03:00;8.7;;;5.4;;
12721;SDS011;6425;50.316;8.114;2023-07-08T15:06:00;10.3;;;5.5;;
12721;SDS011;6425;50.316;8.114;2023-07-08T15:09:00;9.8;;;5.7;;
12721;SDS011;6425;50.316;8.114;2023-07-08T15:12:00;9.8;;;5.7;;
12721;SDS011;6425;50.316;8.114;2023-07-08T15:15:00;8;;;5.1;;
12721;SDS011;6425;50.316;8.114;2023-07-08T15:18:00;8;;;5.1;;
12721;SDS011;6425;50.316;8.114;2023-07-08T15:21:00;8.1;;;5;;
12721;SDS011;6425;50.316;8.114;2023-07-08T15:24:00;7.7;;;4.9;;
12721;SDS011;6425;50.316;8.114;2023-07-08T15:27:00;7.7;;;4.9;;
12721;SDS011;6425;50.316;8.114;2023-07-08T15:30:00;8.1;;;5.3;;
12721;SDS011;6425;50.316;8.114;2023-07-08T15:33:00;8.1;;;5.3;;
12721;SDS011;6425;50.316;8.114;2023-07-08T15:36:00;7.5;;;5.2;;
12721;SDS011;6425;50.316;8.114;2023-07-08T15:39:00;8.1;;;5.7;;
12721;SDS011;6425;50.316;8.114;2023-07-08T15:42:00;8.1;;;5.7;;
12721;SDS011;6425;50.316;8.114;2023-07-08T15:45:00;9.2;;;5.5;;
12721;SDS011;6425;50.316;8.114;2023-07-08T15:48:00;9.2;;;5.5;;
12721;SDS011;6425;50.316;8.114;2023-07-08T15:51:00;9.6;;;6;;
12721;SDS011;6425;50.316;8.114;2023-07-08T15:54:00;8.7;;;5.3;;
12721;SDS011;6425;50.316;8.114;2023-07-08T15:57:00;8.7;;;5.3;;
12721;SDS011;6425;50.316;8.114;2023-07-08T16:00:00;8.8;;;5.6;;
12721;SDS011;6425;50.316;8.114;2023-07-08T16:03:01;8.8;;;5.6;;
12721;SDS011;6425;50.316;8.114;2023-07-08T16:06:00;8.4;;;5.5;;
12721;SDS011;6425;50.316;8.114;2023-07-08T16:09:00;16.4;;;6.4;;
12721;SDS011;6425;50.316;8.114;2023-07-08T16:12:00;16.4;;;6.4;;
12721;SDS011;6425;50.316;8.114;2023-07-08T16:15:00;8.4;;;5;;
12721;SDS011;6425;50.316;8.114;2023-07-08T16:18:00;8.4;;;5;;
12721;SDS011;6425;50.316;8.114;2023-07-08T16:21:00;9.1;;;5.7;;
12721;SDS011;6425;50.316;8.114;2023-07-08T16:24:00;11.8;;;5.7;;
12721;SDS011;6425;50.316;8.114;2023-07-08T16:27:00;11.8;;;5.7;;
12721;SDS011;6425;50.316;8.114;2023-07-08T16:30:00;7.4;;;5.6;;
12721;SDS011;6425;50.316;8.114;2023-07-08T16:33:00;7.4;;;5.6;;
12721;SDS011;6425;50.316;8.114;2023-07-08T16:36:00;8.2;;;5.3;;
12721;SDS011;6425;50.316;8.114;2023-07-08T16:39:00;7.9;;;5.6;;
12721;SDS011;6425;50.316;8.114;2023-07-08T16:42:00;7.9;;;5.6;;
12721;SDS011;6425;50.316;8.114;2023-07-08T16:45:00;9.5;;;5.3;;
12721;SDS011;6425;50.316;8.114;2023-07-08T16:48:00;9.5;;;5.3;;
12721;SDS011;6425;50.316;8.114;2023-07-08T16:51:00;7.6;;;5.3;;
12721;SDS011;6425;50.316;8.114;2023-07-08T16:54:00;7.7;;;5.1;;
12721;SDS011;6425;50.316;8.114;2023-07-08T16:57:00;7.7;;;5.1;;
12721;SDS011;6425;50.316;8.114;2023-07-08T17:00:00;9;;;4.7;;
12721;SDS011;6425;50.316;8.114;2023-07-08T17:03:00;9;;;4.7;;
12721;SDS011;6425;50.316;8.114;2023-07-08T17:06:00;6.9;;;5.1;;
12721;SDS011;6425;50.316;8.114;2023-07-08T17:09:00;6.3;;;4.8;;
12721;SDS011;6425;50.316;8.114;2023-07-08T17:12:00;6.3;;;4.8;;
12721;SDS011;6425;50.316;8.114;2023-07-08T17:15:00;8.2;;;4.9;;
12721;SDS011;6425;50.316;8.114;2023-07-08T17:18:00;8.2;;;4.9;;
12721;SDS011;6425;50.316;8.114;2023-07-08T17:21:00;9;;;5.1;;
12721;SDS011;6425;50.316;8.114;2023-07-08T17:24:00;8.2;;;4.8;;
12721;SDS011;6425;50.316;8.114;2023-07-08T17:27:00;8.2;;;4.8;;
12721;SDS011;6425;50.316;8.114;2023-07-08T17:30:00;8.2;;;4.8;;
12721;SDS011;6425;50.316;8.114;2023-07-08T17:33:00;8.2;;;4.8;;
12721;SDS011;6425;50.316;8.114;2023-07-08T17:36:00;7.8;;;4.8;;
12721;SDS011;6425;50.316;8.114;2023-07-08T17:39:00;7.9;;;4.8;;
12721;SDS011;6425;50.316;8.114;2023-07-08T17:42:00;7.9;;;4.8;;
12721;SDS011;6425;50.316;8.114;2023-07-08T17:45:00;10.1;;;4.9;;
12721;SDS011;6425;50.316;8.114;2023-07-08T17:48:00;10.1;;;4.9;;
12721;SDS011;6425;50.316;8.114;2023-07-08T17:51:00;7.2;;;5.1;;
12721;SDS011;6425;50.316;8.114;2023-07-08T17:54:00;7.7;;;5.2;;
12721;SDS011;6425;50.316;8.114;2023-07-08T17:57:00;7.7;;;5.2;;
12721;SDS011;6425;50.316;8.114;2023-07-08T18:00:00;6.6;;;4.9;;
12721;SDS011;6425;50.316;8.114;2023-07-08T18:03:00;6.6;;;4.9;;
12721;SDS011;6425;50.316;8.114;2023-07-08T18:06:00;8.8;;;4.9;;
12721;SDS011;6425;50.316;8.114;2023-07-08T18:09:00;7.6;;;5.1;;
12721;SDS011;6425;50.316;8.114;2023-07-08T18:12:00;7.6;;;5.1;;
12721;SDS011;6425;50.316;8.114;2023-07-08T18:15:00;9;;;5;;
12721;SDS011;6425;50.316;8.114;2023-07-08T18:18:00;9;;;5;;
12721;SDS011;6425;50.316;8.114;2023-07-08T18:21:00;6.5;;;5.1;;
12721;SDS011;6425;50.316;8.114;2023-07-08T18:24:00;7.4;;;5;;
12721;SDS011;6425;50.316;8.114;2023-07-08T18:27:00;7.4;;;5;;
12721;SDS011;6425;50.316;8.114;2023-07-08T18:30:00;8.1;;;5;;
12721;SDS011;6425;50.316;8.114;2023-07-08T18:33:00;8.1;;;5;;
12721;SDS011;6425;50.316;8.114;2023-07-08T18:36:00;6.5;;;4.7;;
12721;SDS011;6425;50.316;8.114;2023-07-08T18:39:00;7.3;;;4.6;;
12721;SDS011;6425;50.316;8.114;2023-07-08T18:42:00;7.3;;;4.6;;
12721;SDS011;6425;50.316;8.114;2023-07-08T18:45:00;6.1;;;4.3;;
12721;SDS011;6425;50.316;8.114;2023-07-08T18:48:00;6.1;;;4.3;;
12721;SDS011;6425;50.316;8.114;2023-07-08T18:51:00;7;;;4.5;;